This is the latest recevied weather packets stored in our database for station/object DL8BNG-13. If no packets are shown the sender has not sent any weather packets the latest 10 day(s).
| Time | Temp. | Humidity | Pressure | Rain* | Wind** | Luminosity | Snow |
|---|---|---|---|---|---|---|---|
| 1777891503 | 23.89° C | 36% | - | 0 mm | - | - | - |
| 1777890602 | 23.89° C | 36% | - | 0 mm | - | - | - |
| 1777889702 | 23.89° C | 36% | - | 0 mm | - | - | - |
| 1777888802 | 22.78° C | 37% | - | 0 mm | - | - | - |
| 1777887902 | 23.33° C | 36% | - | 0 mm | - | - | - |
| 1777887002 | 23.33° C | 37% | - | 0 mm | - | - | - |
| 1777886103 | 22.78° C | 38% | - | 0 mm | - | - | - |
| 1777885203 | 22.78° C | 38% | - | 0 mm | - | - | - |
| 1777884302 | 21.67° C | 39% | - | 0 mm | - | - | - |
| 1777883403 | 21.11° C | 40% | - | 0 mm | - | - | - |
| 1777882502 | 21.11° C | 41% | - | 0 mm | - | - | - |
| 1777881602 | 20.56° C | 44% | - | 0 mm | - | - | - |
| 1777880702 | 20.56° C | 46% | - | 0 mm | - | - | - |
| 1777879802 | 19.44° C | 49% | - | 0 mm | - | - | - |
| 1777878901 | 18.89° C | 50% | - | 0 mm | - | - | - |
| 1777878002 | 17.78° C | 53% | - | 0 mm | - | - | - |
| 1777877102 | 17.78° C | 54% | - | 0 mm | - | - | - |
| 1777876203 | 16.67° C | 57% | - | 0 mm | - | - | - |
| 1777875302 | 16.11° C | 60% | - | 0 mm | - | - | - |
| 1777874403 | 15.56° C | 62% | - | 0 mm | - | - | - |
| 1777873502 | 14.44° C | 65% | - | 0 mm | - | - | - |
| 1777872602 | 14.44° C | 68% | - | 0 mm | - | - | - |
| 1777871702 | 12.22° C | 74% | - | 0 mm | - | - | - |
| 1777870803 | 11.11° C | 77% | - | 0 mm | - | - | - |
| 1777869902 | 10.56° C | 78% | - | 0 mm | - | - | - |
* Rain since midnight (hover to see other rain measurements)
** Current wind speed in m/s (hover to see current wind gust speed)